sensor_id;sensor_type;location;lat;lon;timestamp;temperature;humidity
35531;DHT22;21637;53.352;-6.356;2023-10-31T00:01:45;8.70;99.90
35531;DHT22;21637;53.352;-6.356;2023-10-31T00:04:11;8.80;99.90
35531;DHT22;21637;53.352;-6.356;2023-10-31T00:06:36;8.70;99.90
35531;DHT22;21637;53.352;-6.356;2023-10-31T00:09:02;8.70;99.90
35531;DHT22;21637;53.352;-6.356;2023-10-31T00:11:28;8.70;99.90
35531;DHT22;21637;53.352;-6.356;2023-10-31T00:13:54;8.70;99.90
35531;DHT22;21637;53.352;-6.356;2023-10-31T00:16:20;8.70;99.90
35531;DHT22;21637;53.352;-6.356;2023-10-31T00:18:45;8.70;99.90
35531;DHT22;21637;53.352;-6.356;2023-10-31T00:21:11;8.70;99.90
35531;DHT22;21637;53.352;-6.356;2023-10-31T00:23:46;8.80;99.90
35531;DHT22;21637;53.352;-6.356;2023-10-31T00:26:13;8.80;99.90
35531;DHT22;21637;53.352;-6.356;2023-10-31T00:28:38;8.80;99.90
35531;DHT22;21637;53.352;-6.356;2023-10-31T00:31:04;8.80;99.90
35531;DHT22;21637;53.352;-6.356;2023-10-31T00:33:32;8.70;99.90
35531;DHT22;21637;53.352;-6.356;2023-10-31T00:35:57;8.80;99.90
35531;DHT22;21637;53.352;-6.356;2023-10-31T00:38:23;8.90;99.90
35531;DHT22;21637;53.352;-6.356;2023-10-31T00:40:49;8.80;99.90
35531;DHT22;21637;53.352;-6.356;2023-10-31T00:43:15;8.80;99.90
35531;DHT22;21637;53.352;-6.356;2023-10-31T00:45:40;8.90;99.90
35531;DHT22;21637;53.352;-6.356;2023-10-31T00:48:06;8.90;99.90
35531;DHT22;21637;53.352;-6.356;2023-10-31T00:50:32;8.80;99.90
35531;DHT22;21637;53.352;-6.356;2023-10-31T00:52:57;8.90;99.90
35531;DHT22;21637;53.352;-6.356;2023-10-31T00:55:23;8.90;99.90
35531;DHT22;21637;53.352;-6.356;2023-10-31T00:57:49;8.90;99.90
35531;DHT22;21637;53.352;-6.356;2023-10-31T01:00:15;8.90;99.90
35531;DHT22;21637;53.352;-6.356;2023-10-31T01:02:40;8.80;99.90
35531;DHT22;21637;53.352;-6.356;2023-10-31T01:05:06;8.90;99.90
35531;DHT22;21637;53.352;-6.356;2023-10-31T01:07:32;8.90;99.90
35531;DHT22;21637;53.352;-6.356;2023-10-31T01:09:58;8.90;99.90
35531;DHT22;21637;53.352;-6.356;2023-10-31T01:12:24;9.00;99.90
35531;DHT22;21637;53.352;-6.356;2023-10-31T01:14:50;9.00;99.90
35531;DHT22;21637;53.352;-6.356;2023-10-31T01:17:15;9.00;99.90
35531;DHT22;21637;53.352;-6.356;2023-10-31T01:19:41;9.00;99.90
35531;DHT22;21637;53.352;-6.356;2023-10-31T01:22:07;9.00;99.90
35531;DHT22;21637;53.352;-6.356;2023-10-31T01:24:33;9.10;99.90
35531;DHT22;21637;53.352;-6.356;2023-10-31T01:26:58;8.90;99.90
35531;DHT22;21637;53.352;-6.356;2023-10-31T01:29:24;9.00;99.90
35531;DHT22;21637;53.352;-6.356;2023-10-31T01:31:50;9.00;99.90
35531;DHT22;21637;53.352;-6.356;2023-10-31T01:34:16;9.00;99.90
35531;DHT22;21637;53.352;-6.356;2023-10-31T01:36:42;9.10;99.90
35531;DHT22;21637;53.352;-6.356;2023-10-31T01:39:07;9.10;99.90
35531;DHT22;21637;53.352;-6.356;2023-10-31T01:41:33;9.10;99.90
35531;DHT22;21637;53.352;-6.356;2023-10-31T01:43:59;9.00;99.90
35531;DHT22;21637;53.352;-6.356;2023-10-31T01:46:24;9.00;99.90
35531;DHT22;21637;53.352;-6.356;2023-10-31T01:48:50;9.00;99.90
35531;DHT22;21637;53.352;-6.356;2023-10-31T01:51:16;9.00;99.90
35531;DHT22;21637;53.352;-6.356;2023-10-31T01:53:42;9.00;99.90
35531;DHT22;21637;53.352;-6.356;2023-10-31T01:56:08;9.10;99.90
35531;DHT22;21637;53.352;-6.356;2023-10-31T01:58:36;9.10;99.90
35531;DHT22;21637;53.352;-6.356;2023-10-31T02:01:02;9.00;99.90
35531;DHT22;21637;53.352;-6.356;2023-10-31T02:03:28;9.00;99.90
35531;DHT22;21637;53.352;-6.356;2023-10-31T02:05:55;9.00;99.90
35531;DHT22;21637;53.352;-6.356;2023-10-31T02:08:21;9.00;99.90
35531;DHT22;21637;53.352;-6.356;2023-10-31T02:10:47;9.00;99.90
35531;DHT22;21637;53.352;-6.356;2023-10-31T02:13:14;9.00;99.90
35531;DHT22;21637;53.352;-6.356;2023-10-31T02:15:39;9.10;99.90
35531;DHT22;21637;53.352;-6.356;2023-10-31T02:18:06;8.90;99.90
35531;DHT22;21637;53.352;-6.356;2023-10-31T02:20:32;9.00;99.90
35531;DHT22;21637;53.352;-6.356;2023-10-31T02:22:58;9.00;99.90
35531;DHT22;21637;53.352;-6.356;2023-10-31T02:25:24;9.00;99.90
35531;DHT22;21637;53.352;-6.356;2023-10-31T02:27:50;9.00;99.90
35531;DHT22;21637;53.352;-6.356;2023-10-31T02:30:15;9.00;99.90
35531;DHT22;21637;53.352;-6.356;2023-10-31T02:32:41;9.00;99.90
35531;DHT22;21637;53.352;-6.356;2023-10-31T02:35:08;9.10;99.90
35531;DHT22;21637;53.352;-6.356;2023-10-31T02:37:34;9.20;99.90
35531;DHT22;21637;53.352;-6.356;2023-10-31T02:40:00;9.20;99.90
35531;DHT22;21637;53.352;-6.356;2023-10-31T02:42:26;9.30;99.90
35531;DHT22;21637;53.352;-6.356;2023-10-31T02:44:52;9.30;99.90
35531;DHT22;21637;53.352;-6.356;2023-10-31T02:47:18;9.30;99.90
35531;DHT22;21637;53.352;-6.356;2023-10-31T02:49:44;9.30;99.90
35531;DHT22;21637;53.352;-6.356;2023-10-31T02:52:10;9.40;99.90
35531;DHT22;21637;53.352;-6.356;2023-10-31T02:54:36;9.30;99.90
35531;DHT22;21637;53.352;-6.356;2023-10-31T02:57:02;9.30;99.90
35531;DHT22;21637;53.352;-6.356;2023-10-31T02:59:28;9.40;99.90
35531;DHT22;21637;53.352;-6.356;2023-10-31T03:01:55;9.40;99.90
35531;DHT22;21637;53.352;-6.356;2023-10-31T03:04:21;9.40;99.90
35531;DHT22;21637;53.352;-6.356;2023-10-31T03:06:47;9.40;99.90
35531;DHT22;21637;53.352;-6.356;2023-10-31T03:09:12;9.30;99.90
35531;DHT22;21637;53.352;-6.356;2023-10-31T03:11:38;9.30;99.90
35531;DHT22;21637;53.352;-6.356;2023-10-31T03:14:04;9.40;99.90
35531;DHT22;21637;53.352;-6.356;2023-10-31T03:16:29;9.30;99.90
35531;DHT22;21637;53.352;-6.356;2023-10-31T03:18:56;9.30;99.90
35531;DHT22;21637;53.352;-6.356;2023-10-31T03:21:21;9.30;99.90
35531;DHT22;21637;53.352;-6.356;2023-10-31T03:23:49;9.30;99.90
35531;DHT22;21637;53.352;-6.356;2023-10-31T03:26:18;9.40;99.90
35531;DHT22;21637;53.352;-6.356;2023-10-31T03:28:45;9.40;99.90
35531;DHT22;21637;53.352;-6.356;2023-10-31T03:31:12;9.40;99.90
35531;DHT22;21637;53.352;-6.356;2023-10-31T03:33:38;9.40;99.90
35531;DHT22;21637;53.352;-6.356;2023-10-31T03:36:04;9.50;99.90
35531;DHT22;21637;53.352;-6.356;2023-10-31T03:38:31;9.40;99.90
35531;DHT22;21637;53.352;-6.356;2023-10-31T03:40:57;9.40;99.90
35531;DHT22;21637;53.352;-6.356;2023-10-31T03:43:23;9.30;99.90
35531;DHT22;21637;53.352;-6.356;2023-10-31T03:45:49;9.40;99.90
35531;DHT22;21637;53.352;-6.356;2023-10-31T03:48:16;9.30;99.90
35531;DHT22;21637;53.352;-6.356;2023-10-31T03:50:42;9.30;99.90
35531;DHT22;21637;53.352;-6.356;2023-10-31T03:53:08;9.30;99.90
35531;DHT22;21637;53.352;-6.356;2023-10-31T03:55:34;9.30;99.90
35531;DHT22;21637;53.352;-6.356;2023-10-31T03:58:00;9.50;99.90
35531;DHT22;21637;53.352;-6.356;2023-10-31T04:00:25;9.50;99.90
35531;DHT22;21637;53.352;-6.356;2023-10-31T04:02:51;9.40;99.90
35531;DHT22;21637;53.352;-6.356;2023-10-31T04:05:17;9.40;99.90
35531;DHT22;21637;53.352;-6.356;2023-10-31T04:07:45;9.50;99.90
35531;DHT22;21637;53.352;-6.356;2023-10-31T04:10:11;9.40;99.90
35531;DHT22;21637;53.352;-6.356;2023-10-31T04:12:37;9.50;99.90
35531;DHT22;21637;53.352;-6.356;2023-10-31T04:15:03;9.50;99.90
35531;DHT22;21637;53.352;-6.356;2023-10-31T04:17:29;9.50;99.90
35531;DHT22;21637;53.352;-6.356;2023-10-31T04:19:54;9.60;99.90
35531;DHT22;21637;53.352;-6.356;2023-10-31T04:22:20;9.60;99.90
35531;DHT22;21637;53.352;-6.356;2023-10-31T04:24:46;9.50;99.90
35531;DHT22;21637;53.352;-6.356;2023-10-31T04:27:11;9.50;99.90
35531;DHT22;21637;53.352;-6.356;2023-10-31T04:29:37;9.60;99.90
35531;DHT22;21637;53.352;-6.356;2023-10-31T04:32:03;9.50;99.90
35531;DHT22;21637;53.352;-6.356;2023-10-31T04:34:29;9.60;99.90
35531;DHT22;21637;53.352;-6.356;2023-10-31T04:36:55;9.60;99.90
35531;DHT22;21637;53.352;-6.356;2023-10-31T04:39:21;9.70;99.90
35531;DHT22;21637;53.352;-6.356;2023-10-31T04:41:46;9.60;99.90
35531;DHT22;21637;53.352;-6.356;2023-10-31T04:44:12;9.80;99.90
35531;DHT22;21637;53.352;-6.356;2023-10-31T04:46:38;9.70;99.90
35531;DHT22;21637;53.352;-6.356;2023-10-31T04:49:03;9.80;99.90
35531;DHT22;21637;53.352;-6.356;2023-10-31T04:51:34;9.80;99.90
35531;DHT22;21637;53.352;-6.356;2023-10-31T04:54:00;9.80;99.90
35531;DHT22;21637;53.352;-6.356;2023-10-31T04:56:26;9.80;99.90
35531;DHT22;21637;53.352;-6.356;2023-10-31T04:58:51;9.90;99.90
35531;DHT22;21637;53.352;-6.356;2023-10-31T05:01:18;9.90;99.90
35531;DHT22;21637;53.352;-6.356;2023-10-31T05:03:45;9.90;99.90
35531;DHT22;21637;53.352;-6.356;2023-10-31T05:06:11;9.90;99.90
35531;DHT22;21637;53.352;-6.356;2023-10-31T05:08:36;9.90;99.90
35531;DHT22;21637;53.352;-6.356;2023-10-31T05:11:02;9.90;99.90
35531;DHT22;21637;53.352;-6.356;2023-10-31T05:13:29;9.90;99.90
35531;DHT22;21637;53.352;-6.356;2023-10-31T05:15:54;9.80;99.90
35531;DHT22;21637;53.352;-6.356;2023-10-31T05:18:21;9.90;99.90
35531;DHT22;21637;53.352;-6.356;2023-10-31T05:20:46;9.90;99.90
35531;DHT22;21637;53.352;-6.356;2023-10-31T05:23:12;9.80;99.90
35531;DHT22;21637;53.352;-6.356;2023-10-31T05:25:38;9.80;99.90
35531;DHT22;21637;53.352;-6.356;2023-10-31T05:28:04;9.90;99.90
35531;DHT22;21637;53.352;-6.356;2023-10-31T05:30:30;9.80;99.90
35531;DHT22;21637;53.352;-6.356;2023-10-31T05:32:56;9.80;99.90
35531;DHT22;21637;53.352;-6.356;2023-10-31T05:35:22;9.80;99.90
35531;DHT22;21637;53.352;-6.356;2023-10-31T05:37:48;9.90;99.90
35531;DHT22;21637;53.352;-6.356;2023-10-31T05:40:15;9.80;99.90
35531;DHT22;21637;53.352;-6.356;2023-10-31T05:42:41;9.80;99.90
35531;DHT22;21637;53.352;-6.356;2023-10-31T05:45:08;9.90;99.90
35531;DHT22;21637;53.352;-6.356;2023-10-31T05:47:34;10.00;99.90
35531;DHT22;21637;53.352;-6.356;2023-10-31T05:50:00;9.90;99.90
35531;DHT22;21637;53.352;-6.356;2023-10-31T05:52:29;9.90;99.90
35531;DHT22;21637;53.352;-6.356;2023-10-31T05:54:55;9.90;99.90
35531;DHT22;21637;53.352;-6.356;2023-10-31T05:57:21;9.90;99.90
35531;DHT22;21637;53.352;-6.356;2023-10-31T05:59:47;9.90;99.90
35531;DHT22;21637;53.352;-6.356;2023-10-31T06:02:13;9.90;99.90
35531;DHT22;21637;53.352;-6.356;2023-10-31T06:04:39;9.90;99.90
35531;DHT22;21637;53.352;-6.356;2023-10-31T06:07:05;9.80;99.90
35531;DHT22;21637;53.352;-6.356;2023-10-31T06:09:31;9.80;99.90
35531;DHT22;21637;53.352;-6.356;2023-10-31T06:11:59;9.90;99.90
35531;DHT22;21637;53.352;-6.356;2023-10-31T06:14:25;9.80;99.90
35531;DHT22;21637;53.352;-6.356;2023-10-31T06:16:51;9.80;99.90
35531;DHT22;21637;53.352;-6.356;2023-10-31T06:19:17;9.80;99.90
35531;DHT22;21637;53.352;-6.356;2023-10-31T06:21:43;9.80;99.90
35531;DHT22;21637;53.352;-6.356;2023-10-31T06:24:09;9.80;99.90
35531;DHT22;21637;53.352;-6.356;2023-10-31T06:26:34;9.80;99.90
35531;DHT22;21637;53.352;-6.356;2023-10-31T06:29:00;9.80;99.90
35531;DHT22;21637;53.352;-6.356;2023-10-31T06:31:26;9.80;99.90
35531;DHT22;21637;53.352;-6.356;2023-10-31T06:33:52;9.70;99.90
35531;DHT22;21637;53.352;-6.356;2023-10-31T06:36:17;9.70;99.90
35531;DHT22;21637;53.352;-6.356;2023-10-31T06:38:43;9.70;99.90
35531;DHT22;21637;53.352;-6.356;2023-10-31T06:41:09;9.70;99.90
35531;DHT22;21637;53.352;-6.356;2023-10-31T06:43:34;9.80;99.90
35531;DHT22;21637;53.352;-6.356;2023-10-31T06:46:00;9.70;99.90
35531;DHT22;21637;53.352;-6.356;2023-10-31T06:48:28;9.70;99.90
35531;DHT22;21637;53.352;-6.356;2023-10-31T06:50:54;9.80;99.90
35531;DHT22;21637;53.352;-6.356;2023-10-31T06:53:19;9.80;99.90
35531;DHT22;21637;53.352;-6.356;2023-10-31T06:55:45;9.80;99.90
35531;DHT22;21637;53.352;-6.356;2023-10-31T06:58:11;9.70;99.90
35531;DHT22;21637;53.352;-6.356;2023-10-31T07:00:37;9.70;99.90
35531;DHT22;21637;53.352;-6.356;2023-10-31T07:03:05;9.70;99.90
35531;DHT22;21637;53.352;-6.356;2023-10-31T07:05:35;9.80;99.90
35531;DHT22;21637;53.352;-6.356;2023-10-31T07:08:01;9.70;99.90
35531;DHT22;21637;53.352;-6.356;2023-10-31T07:10:28;9.70;99.90
35531;DHT22;21637;53.352;-6.356;2023-10-31T07:12:54;9.80;99.90
35531;DHT22;21637;53.352;-6.356;2023-10-31T07:15:20;9.70;99.90
35531;DHT22;21637;53.352;-6.356;2023-10-31T07:17:47;9.70;99.90
35531;DHT22;21637;53.352;-6.356;2023-10-31T07:20:13;9.80;99.90
35531;DHT22;21637;53.352;-6.356;2023-10-31T07:22:38;9.70;99.90
35531;DHT22;21637;53.352;-6.356;2023-10-31T07:25:06;9.80;99.90
35531;DHT22;21637;53.352;-6.356;2023-10-31T07:27:31;9.80;99.90
35531;DHT22;21637;53.352;-6.356;2023-10-31T07:29:57;9.80;99.90
35531;DHT22;21637;53.352;-6.356;2023-10-31T07:32:24;9.80;99.90
35531;DHT22;21637;53.352;-6.356;2023-10-31T07:34:49;9.80;99.90
35531;DHT22;21637;53.352;-6.356;2023-10-31T07:37:15;9.70;99.90
35531;DHT22;21637;53.352;-6.356;2023-10-31T07:39:41;9.80;99.90
35531;DHT22;21637;53.352;-6.356;2023-10-31T07:42:07;9.70;99.90
35531;DHT22;21637;53.352;-6.356;2023-10-31T07:44:34;9.80;99.90
35531;DHT22;21637;53.352;-6.356;2023-10-31T07:47:00;9.70;99.90
35531;DHT22;21637;53.352;-6.356;2023-10-31T07:49:25;9.70;99.90
35531;DHT22;21637;53.352;-6.356;2023-10-31T07:51:51;9.70;99.90
35531;DHT22;21637;53.352;-6.356;2023-10-31T07:54:17;9.70;99.90
35531;DHT22;21637;53.352;-6.356;2023-10-31T07:56:43;9.70;99.90
35531;DHT22;21637;53.352;-6.356;2023-10-31T07:59:09;9.60;99.90
35531;DHT22;21637;53.352;-6.356;2023-10-31T08:01:34;9.60;99.90
35531;DHT22;21637;53.352;-6.356;2023-10-31T08:04:00;9.60;99.90
35531;DHT22;21637;53.352;-6.356;2023-10-31T08:06:26;9.70;99.90
35531;DHT22;21637;53.352;-6.356;2023-10-31T08:08:52;9.60;99.90
35531;DHT22;21637;53.352;-6.356;2023-10-31T08:11:18;9.70;99.90
35531;DHT22;21637;53.352;-6.356;2023-10-31T08:13:44;9.70;99.90
35531;DHT22;21637;53.352;-6.356;2023-10-31T08:16:10;9.80;99.90
35531;DHT22;21637;53.352;-6.356;2023-10-31T08:18:36;9.80;99.90
35531;DHT22;21637;53.352;-6.356;2023-10-31T08:21:03;9.80;99.90
35531;DHT22;21637;53.352;-6.356;2023-10-31T08:23:29;9.80;99.90
35531;DHT22;21637;53.352;-6.356;2023-10-31T08:25:55;9.80;99.90
35531;DHT22;21637;53.352;-6.356;2023-10-31T08:28:21;9.80;99.90
35531;DHT22;21637;53.352;-6.356;2023-10-31T08:30:47;9.90;99.90
35531;DHT22;21637;53.352;-6.356;2023-10-31T08:33:13;9.80;99.90
35531;DHT22;21637;53.352;-6.356;2023-10-31T08:35:39;9.90;99.90
35531;DHT22;21637;53.352;-6.356;2023-10-31T08:38:05;9.80;99.90
35531;DHT22;21637;53.352;-6.356;2023-10-31T08:40:31;9.90;99.90
35531;DHT22;21637;53.352;-6.356;2023-10-31T08:42:57;9.90;99.90
35531;DHT22;21637;53.352;-6.356;2023-10-31T08:45:22;9.90;99.90
35531;DHT22;21637;53.352;-6.356;2023-10-31T08:47:48;9.80;99.90
35531;DHT22;21637;53.352;-6.356;2023-10-31T08:50:15;9.90;99.90
35531;DHT22;21637;53.352;-6.356;2023-10-31T08:52:41;9.90;99.90
35531;DHT22;21637;53.352;-6.356;2023-10-31T08:55:07;9.90;99.90
35531;DHT22;21637;53.352;-6.356;2023-10-31T08:57:33;9.80;99.90
35531;DHT22;21637;53.352;-6.356;2023-10-31T08:59:59;9.80;99.90
35531;DHT22;21637;53.352;-6.356;2023-10-31T09:02:25;9.80;99.90
35531;DHT22;21637;53.352;-6.356;2023-10-31T09:04:51;9.90;99.90
35531;DHT22;21637;53.352;-6.356;2023-10-31T09:07:17;9.80;99.90
35531;DHT22;21637;53.352;-6.356;2023-10-31T09:09:42;9.90;99.90
35531;DHT22;21637;53.352;-6.356;2023-10-31T09:12:08;9.90;99.90
35531;DHT22;21637;53.352;-6.356;2023-10-31T09:14:34;9.90;99.90
35531;DHT22;21637;53.352;-6.356;2023-10-31T09:17:01;10.00;99.90
35531;DHT22;21637;53.352;-6.356;2023-10-31T09:19:27;10.00;99.90
35531;DHT22;21637;53.352;-6.356;2023-10-31T09:21:53;10.10;99.90
35531;DHT22;21637;53.352;-6.356;2023-10-31T09:24:18;10.10;99.90
35531;DHT22;21637;53.352;-6.356;2023-10-31T09:26:44;10.10;99.90
35531;DHT22;21637;53.352;-6.356;2023-10-31T09:29:13;10.10;99.90
35531;DHT22;21637;53.352;-6.356;2023-10-31T09:31:38;10.20;99.90
35531;DHT22;21637;53.352;-6.356;2023-10-31T09:34:04;10.20;99.90
35531;DHT22;21637;53.352;-6.356;2023-10-31T09:36:33;10.30;99.90
35531;DHT22;21637;53.352;-6.356;2023-10-31T09:39:02;10.30;99.90
35531;DHT22;21637;53.352;-6.356;2023-10-31T09:41:28;10.40;99.90
35531;DHT22;21637;53.352;-6.356;2023-10-31T09:43:55;10.40;99.90
35531;DHT22;21637;53.352;-6.356;2023-10-31T09:46:21;10.40;99.90
35531;DHT22;21637;53.352;-6.356;2023-10-31T09:48:48;10.50;99.90
35531;DHT22;21637;53.352;-6.356;2023-10-31T09:51:14;10.50;99.90
35531;DHT22;21637;53.352;-6.356;2023-10-31T09:53:42;10.50;99.90
35531;DHT22;21637;53.352;-6.356;2023-10-31T09:56:10;10.50;99.90
35531;DHT22;21637;53.352;-6.356;2023-10-31T09:58:36;10.50;99.90
35531;DHT22;21637;53.352;-6.356;2023-10-31T10:01:02;10.50;99.90
35531;DHT22;21637;53.352;-6.356;2023-10-31T10:03:29;10.50;99.90
35531;DHT22;21637;53.352;-6.356;2023-10-31T10:05:55;10.60;99.90
35531;DHT22;21637;53.352;-6.356;2023-10-31T10:08:21;10.60;99.90
35531;DHT22;21637;53.352;-6.356;2023-10-31T10:10:48;10.60;99.90
35531;DHT22;21637;53.352;-6.356;2023-10-31T10:13:17;10.60;99.90
35531;DHT22;21637;53.352;-6.356;2023-10-31T10:15:47;10.70;99.90
35531;DHT22;21637;53.352;-6.356;2023-10-31T10:18:29;10.80;99.90
35531;DHT22;21637;53.352;-6.356;2023-10-31T10:21:00;10.80;99.90
35531;DHT22;21637;53.352;-6.356;2023-10-31T10:23:26;10.90;99.90
35531;DHT22;21637;53.352;-6.356;2023-10-31T10:25:54;10.90;99.90
35531;DHT22;21637;53.352;-6.356;2023-10-31T10:28:19;11.00;99.90
35531;DHT22;21637;53.352;-6.356;2023-10-31T10:30:46;11.00;99.90
35531;DHT22;21637;53.352;-6.356;2023-10-31T10:33:16;11.00;99.90
35531;DHT22;21637;53.352;-6.356;2023-10-31T10:35:42;10.90;99.90
35531;DHT22;21637;53.352;-6.356;2023-10-31T10:38:11;10.90;99.90
35531;DHT22;21637;53.352;-6.356;2023-10-31T10:40:42;10.90;99.90
35531;DHT22;21637;53.352;-6.356;2023-10-31T10:43:21;10.90;99.90
35531;DHT22;21637;53.352;-6.356;2023-10-31T10:45:53;10.90;99.90
35531;DHT22;21637;53.352;-6.356;2023-10-31T10:48:22;10.80;99.90
35531;DHT22;21637;53.352;-6.356;2023-10-31T10:50:59;10.80;99.90
35531;DHT22;21637;53.352;-6.356;2023-10-31T10:53:30;10.80;99.90
35531;DHT22;21637;53.352;-6.356;2023-10-31T10:56:13;10.70;99.90
35531;DHT22;21637;53.352;-6.356;2023-10-31T10:58:55;10.70;99.90
35531;DHT22;21637;53.352;-6.356;2023-10-31T11:01:26;10.70;99.90
35531;DHT22;21637;53.352;-6.356;2023-10-31T11:03:55;10.60;99.90
35531;DHT22;21637;53.352;-6.356;2023-10-31T11:06:21;10.70;99.90
35531;DHT22;21637;53.352;-6.356;2023-10-31T11:08:47;10.70;99.90
35531;DHT22;21637;53.352;-6.356;2023-10-31T11:11:14;10.60;99.90
35531;DHT22;21637;53.352;-6.356;2023-10-31T11:13:43;10.60;99.90
35531;DHT22;21637;53.352;-6.356;2023-10-31T11:16:15;10.70;99.90
35531;DHT22;21637;53.352;-6.356;2023-10-31T11:18:42;10.70;99.90
35531;DHT22;21637;53.352;-6.356;2023-10-31T11:21:09;10.70;99.90
35531;DHT22;21637;53.352;-6.356;2023-10-31T11:23:36;10.70;99.90
35531;DHT22;21637;53.352;-6.356;2023-10-31T11:26:01;10.70;99.90
35531;DHT22;21637;53.352;-6.356;2023-10-31T11:28:27;10.70;99.90
35531;DHT22;21637;53.352;-6.356;2023-10-31T11:30:53;10.80;99.90
35531;DHT22;21637;53.352;-6.356;2023-10-31T11:33:24;10.80;99.90
35531;DHT22;21637;53.352;-6.356;2023-10-31T11:35:51;10.80;99.90
35531;DHT22;21637;53.352;-6.356;2023-10-31T11:38:31;10.80;99.90
35531;DHT22;21637;53.352;-6.356;2023-10-31T11:41:02;10.90;99.90
35531;DHT22;21637;53.352;-6.356;2023-10-31T11:46:05;11.00;99.90
35531;DHT22;21637;53.352;-6.356;2023-10-31T11:48:45;11.00;99.90
35531;DHT22;21637;53.352;-6.356;2023-10-31T11:51:13;11.00;99.90
35531;DHT22;21637;53.352;-6.356;2023-10-31T11:53:39;11.00;99.90
35531;DHT22;21637;53.352;-6.356;2023-10-31T11:56:06;11.10;99.90
35531;DHT22;21637;53.352;-6.356;2023-10-31T11:58:35;11.20;99.90
35531;DHT22;21637;53.352;-6.356;2023-10-31T12:01:02;11.10;99.90
35531;DHT22;21637;53.352;-6.356;2023-10-31T12:03:40;11.10;99.90
35531;DHT22;21637;53.352;-6.356;2023-10-31T12:06:07;11.20;99.90
35531;DHT22;21637;53.352;-6.356;2023-10-31T12:08:37;11.30;99.90
35531;DHT22;21637;53.352;-6.356;2023-10-31T12:11:11;11.40;99.90
35531;DHT22;21637;53.352;-6.356;2023-10-31T12:13:39;11.50;99.90
35531;DHT22;21637;53.352;-6.356;2023-10-31T12:16:06;11.60;99.90
35531;DHT22;21637;53.352;-6.356;2023-10-31T12:18:33;11.60;99.90
35531;DHT22;21637;53.352;-6.356;2023-10-31T12:21:00;11.70;99.90
35531;DHT22;21637;53.352;-6.356;2023-10-31T12:23:26;11.80;99.90
35531;DHT22;21637;53.352;-6.356;2023-10-31T12:25:52;11.90;99.90
35531;DHT22;21637;53.352;-6.356;2023-10-31T12:28:19;12.00;99.90
35531;DHT22;21637;53.352;-6.356;2023-10-31T12:30:49;11.90;99.90
35531;DHT22;21637;53.352;-6.356;2023-10-31T12:33:16;11.90;99.90
35531;DHT22;21637;53.352;-6.356;2023-10-31T12:35:42;11.90;99.90
35531;DHT22;21637;53.352;-6.356;2023-10-31T12:38:12;11.80;99.90
35531;DHT22;21637;53.352;-6.356;2023-10-31T12:40:43;11.90;99.90
35531;DHT22;21637;53.352;-6.356;2023-10-31T12:43:09;11.80;99.90
35531;DHT22;21637;53.352;-6.356;2023-10-31T12:45:35;11.80;99.90
35531;DHT22;21637;53.352;-6.356;2023-10-31T12:48:09;11.90;99.90
35531;DHT22;21637;53.352;-6.356;2023-10-31T12:50:37;11.90;99.90
35531;DHT22;21637;53.352;-6.356;2023-10-31T12:53:04;11.90;99.90
35531;DHT22;21637;53.352;-6.356;2023-10-31T12:55:30;12.00;99.90
35531;DHT22;21637;53.352;-6.356;2023-10-31T12:57:57;12.10;99.90
35531;DHT22;21637;53.352;-6.356;2023-10-31T13:00:31;12.20;99.90
35531;DHT22;21637;53.352;-6.356;2023-10-31T13:03:07;12.20;99.90
35531;DHT22;21637;53.352;-6.356;2023-10-31T13:05:37;12.20;99.90
35531;DHT22;21637;53.352;-6.356;2023-10-31T13:08:14;12.20;99.90
35531;DHT22;21637;53.352;-6.356;2023-10-31T13:10:41;12.30;99.90
35531;DHT22;21637;53.352;-6.356;2023-10-31T13:13:08;12.40;99.90
35531;DHT22;21637;53.352;-6.356;2023-10-31T13:15:34;12.40;99.90
35531;DHT22;21637;53.352;-6.356;2023-10-31T13:18:02;12.40;99.90
35531;DHT22;21637;53.352;-6.356;2023-10-31T13:20:28;12.50;99.90
35531;DHT22;21637;53.352;-6.356;2023-10-31T13:22:54;12.50;99.90
35531;DHT22;21637;53.352;-6.356;2023-10-31T13:25:20;12.50;99.90
35531;DHT22;21637;53.352;-6.356;2023-10-31T13:27:46;12.50;99.90
35531;DHT22;21637;53.352;-6.356;2023-10-31T13:30:16;12.50;99.90
35531;DHT22;21637;53.352;-6.356;2023-10-31T13:32:43;12.60;99.90
35531;DHT22;21637;53.352;-6.356;2023-10-31T13:35:09;12.50;99.90
35531;DHT22;21637;53.352;-6.356;2023-10-31T13:37:36;12.50;99.90
35531;DHT22;21637;53.352;-6.356;2023-10-31T13:40:03;12.40;99.90
35531;DHT22;21637;53.352;-6.356;2023-10-31T13:42:29;12.50;99.90
35531;DHT22;21637;53.352;-6.356;2023-10-31T13:44:55;12.40;99.90
35531;DHT22;21637;53.352;-6.356;2023-10-31T13:47:20;12.40;99.90
35531;DHT22;21637;53.352;-6.356;2023-10-31T13:49:46;12.40;99.90
35531;DHT22;21637;53.352;-6.356;2023-10-31T13:52:12;12.50;99.90
35531;DHT22;21637;53.352;-6.356;2023-10-31T13:54:38;12.40;99.90
35531;DHT22;21637;53.352;-6.356;2023-10-31T13:57:04;12.40;99.90
35531;DHT22;21637;53.352;-6.356;2023-10-31T13:59:30;12.40;99.90
35531;DHT22;21637;53.352;-6.356;2023-10-31T14:01:57;12.40;99.90
35531;DHT22;21637;53.352;-6.356;2023-10-31T14:04:23;12.40;99.90
35531;DHT22;21637;53.352;-6.356;2023-10-31T14:06:49;12.40;99.90
35531;DHT22;21637;53.352;-6.356;2023-10-31T14:09:15;12.40;99.90
35531;DHT22;21637;53.352;-6.356;2023-10-31T14:11:41;12.40;99.90
35531;DHT22;21637;53.352;-6.356;2023-10-31T14:14:08;12.40;99.90
35531;DHT22;21637;53.352;-6.356;2023-10-31T14:16:39;12.40;99.90
35531;DHT22;21637;53.352;-6.356;2023-10-31T14:19:05;12.40;99.90
35531;DHT22;21637;53.352;-6.356;2023-10-31T14:21:33;12.30;99.90
35531;DHT22;21637;53.352;-6.356;2023-10-31T14:23:59;12.30;99.90
35531;DHT22;21637;53.352;-6.356;2023-10-31T14:26:26;12.30;99.90
35531;DHT22;21637;53.352;-6.356;2023-10-31T14:28:52;12.40;99.90
35531;DHT22;21637;53.352;-6.356;2023-10-31T14:31:18;12.40;99.90
35531;DHT22;21637;53.352;-6.356;2023-10-31T14:33:46;12.40;99.90
35531;DHT22;21637;53.352;-6.356;2023-10-31T14:36:12;12.50;99.90
35531;DHT22;21637;53.352;-6.356;2023-10-31T14:38:39;12.50;99.90
35531;DHT22;21637;53.352;-6.356;2023-10-31T14:41:05;12.50;99.90
35531;DHT22;21637;53.352;-6.356;2023-10-31T14:43:31;12.50;99.90
35531;DHT22;21637;53.352;-6.356;2023-10-31T14:45:57;12.50;99.90
35531;DHT22;21637;53.352;-6.356;2023-10-31T14:48:23;12.50;99.90
35531;DHT22;21637;53.352;-6.356;2023-10-31T14:50:49;12.40;99.90
35531;DHT22;21637;53.352;-6.356;2023-10-31T14:53:16;12.40;99.90
35531;DHT22;21637;53.352;-6.356;2023-10-31T14:55:41;12.30;99.90
35531;DHT22;21637;53.352;-6.356;2023-10-31T14:58:07;12.30;99.90
35531;DHT22;21637;53.352;-6.356;2023-10-31T15:00:36;12.30;99.90
35531;DHT22;21637;53.352;-6.356;2023-10-31T15:03:02;12.20;99.90
35531;DHT22;21637;53.352;-6.356;2023-10-31T15:05:29;12.20;99.90
35531;DHT22;21637;53.352;-6.356;2023-10-31T15:07:56;12.10;99.90
35531;DHT22;21637;53.352;-6.356;2023-10-31T15:10:23;12.10;99.90
35531;DHT22;21637;53.352;-6.356;2023-10-31T15:12:49;12.00;99.90
35531;DHT22;21637;53.352;-6.356;2023-10-31T15:15:18;12.00;99.90
35531;DHT22;21637;53.352;-6.356;2023-10-31T15:17:44;12.00;99.90
35531;DHT22;21637;53.352;-6.356;2023-10-31T15:20:10;12.00;99.90
35531;DHT22;21637;53.352;-6.356;2023-10-31T15:22:39;11.90;99.90
35531;DHT22;21637;53.352;-6.356;2023-10-31T15:25:05;11.90;99.90